• Join FlightAware (Why Join?)
  • Login
  • US Flag 
07:19AM EST


 

Airport Tracker/Info


-or-


 

Live Flight TrackerFlight Track Log ✈ GJS6221 ✈ 05-May-2013 ✈ KBTV - KLGA

Flight Track Log - Related Links

Times and Time Zones

All times are in EDT time to prevent confusion due to time zone crossing. See the GJS6221 flight status page for this flight to view local times or setup timezone preferences in your user account.

Time Position Orientation Groundspeed Altitude Reporting Facility
EDT Latitude Longitude Course Direction KTS MPH feet Rate Location/Type
02:17PM 44.3739 -73.1256 196° South 225 259 4,500  Level Boston Center
02:18PM 44.3072 -73.1219 178° South 258 297 7,100 2,640 Climbing Boston Center
02:19PM 44.2342 -73.1356 188° South 275 316 9,800 2,400 Climbing Boston Center
02:20PM 44.1528 -73.1750 199° South 291 335 12,000 2,100 Climbing Boston Center
02:21PM 44.0650 -73.2144 198° South 324 373 14,000 1,920 Climbing Boston Center
02:22PM 43.9025 -73.3657 196° South  Level FlightAware Approximate
02:22PM 43.9708 -73.2594 199° South 349 402 15,900  Level Boston Center
02:23PM 43.8725 -73.3042 198° South 369 425 17,800 1,860 Climbing Boston Center
02:24PM 43.7681 -73.3486 197° South 387 445 19,700 1,680 Climbing Boston Center
02:25PM 43.6531 -73.4042 199° South 393 452 21,200 1,680 Climbing Boston Center
02:26PM 43.5589 -73.4456 198° South 398 458 23,100 1,380 Climbing Boston Center
02:27PM 43.4439 -73.4953 197° South 408 470 24,000 420 Climbing Boston Center
02:28PM 43.3225 -73.5475 197° South 439 505 24,000 -180 Level Boston Center
02:29PM 43.1947 -73.6050 198° South 468 539 23,700 -540 Descending Boston Center
02:30PM 43.0608 -73.6678 199° South 468 539 23,000 -360 Descending Boston Center
02:31PM 42.9372 -73.7219 198° South 468 539 23,000  Level Boston Center
02:32PM 42.8156 -73.7761 198° South 462 532 23,000  Level Boston Center
02:33PM 42.6944 -73.7961 187° South 451 519 23,000  Level Boston Center
02:34PM 42.5844 -73.7739 172° South 436 502 23,000 -2,520 Level Boston Center
02:35PM 42.4450 -73.7400 170° South 441 507 18,000 -840 Descending Boston Center
02:36PM 42.3369 -73.7208 173° South 451 519 21,400 480 Climbing Boston Center
02:37PM 42.2183 -73.6961 171° South 442 509 19,000 -1,740 Descending Boston Center
02:38PM 42.1061 -73.6742 172° South 429 494 18,000 -540 Descending Boston Center
02:39PM 41.9814 -73.6439 170° South 411 473 18,000 -60 Level Boston Center
02:40PM 41.8811 -73.6753 193° South 399 459 17,900 -900 Descending Boston Center
02:41PM 41.7717 -73.7483 206° Southwest 406 467 16,200 -1,740 Descending Boston Center
02:42PM 41.6897 -73.8050 207° Southwest 389 448 14,500 -1,740 Descending Boston Center
02:43PM 41.5833 -73.8333 191° South 328 377 12,700 -1,620 Descending New York TRACON
02:44PM 41.5167 -73.8667 201° Southwest 295 339 11,400 -1,620 Descending New York TRACON
02:45PM 41.4333 -73.8667 180° South 280 322 9,500 -1,680 Descending New York TRACON
02:46PM 41.3667 -73.8167 151° Southeast 262 302 8,000 -780 Descending New York TRACON
02:47PM 41.3167 -73.7667 143° Southeast 262 302 8,000  Level New York TRACON
02:48PM 41.2500 -73.7167 151° Southeast 271 312 8,000  Level New York TRACON
02:49PM 41.1833 -73.6667 151° Southeast 271 312 8,000 -780 Level New York TRACON
02:50PM 41.1167 -73.6500 169° South 270 311 6,600 -1,680 Descending New York TRACON
02:51PM 41.0333 -73.6667 189° South 285 328 4,700 -1,260 Descending New York TRACON
02:52PM 40.9667 -73.7167 210° Southwest 281 323 4,000 -360 Descending New York TRACON
02:53PM 40.9500 -73.8000 255° West 281 323 4,000  Level New York TRACON
02:54PM 40.9167 -73.8833 242° Southwest 282 325 4,000  Level New York TRACON
02:55PM 40.8500 -73.9500 217° Southwest 273 314 4,000  Level New York TRACON
02:57PM 40.7500 -74.0333 212° Southwest 200 230 4,000  Level New York TRACON
02:58PM 40.7000 -74.0667 207° Southwest 204 235 4,000  Level New York TRACON
02:59PM 40.6500 -74.1000 207° Southwest 200 230 4,000 -360 Level New York TRACON
03:01PM 40.5667 -74.1000 180° South 166 191 3,000 -360 Descending New York TRACON
03:02PM 40.5667 -74.0500 90° East 167 192 3,000  Level New York TRACON
03:03PM 40.6167 -74.0167 27° Northeast 164 189 3,000 -60 Level New York TRACON
03:04PM 40.6500 -73.9833 37° Northeast 165 190 2,900 -600 Descending New York TRACON
03:05PM 40.6833 -73.9500 37° Northeast 174 200 1,900 -900 Descending New York TRACON
03:06PM 40.7333 -73.9167 27° Northeast 150 173 1,100 -780 Descending New York TRACON
03:07PM 40.7667 -73.9000 21° North 163 188 400 -720 Descending New York TRACON